Time;durP1;ratioP1;P1;durP2;ratioP2;P2;SDS_P1;SDS_P2;PMS_P1;PMS_P2;Temp;Humidity;BMP_temperature;BMP_pressure;BME280_temperature;BME280_humidity;BME280_pressure;Samples;Min_cycle;Max_cycle;Signal;HPM_P1;HPM_P2
2020/12/28 00:01:33;;;;;;;2.55;1.88;;;;;;;17.35;53.63;97565.78;4823487;29;20444;-71
2020/12/28 00:03:58;;;;;;;2.17;1.83;;;;;;;17.32;53.71;97564.19;4825292;29;20049;-71
2020/12/28 00:06:24;;;;;;;2.95;1.85;;;;;;;17.31;53.33;97559.88;4810017;29;20510;-71
2020/12/28 00:08:49;;;;;;;2.30;1.80;;;;;;;17.32;53.34;97569.41;4808638;29;20065;-71
2020/12/28 00:11:18;;;;;;;1.83;1.60;;;;;;;17.35;53.41;97565.78;4809496;29;20043;-71
2020/12/28 00:13:45;;;;;;;1.95;1.40;;;;;;;17.33;53.41;97562.41;4811474;29;20034;-71
2020/12/28 00:16:14;;;;;;;2.45;1.70;;;;;;;17.33;53.59;97568.47;4824012;29;20033;-71
2020/12/28 00:18:40;;;;;;;2.90;1.95;;;;;;;17.32;53.23;97571.16;4825397;29;20049;-71
2020/12/28 00:21:06;;;;;;;2.20;1.60;;;;;;;17.32;53.28;97568.56;4825064;29;20062;-71
2020/12/28 00:23:31;;;;;;;1.38;1.08;;;;;;;17.32;53.64;97568.56;4808999;29;20110;-71
2020/12/28 00:25:56;;;;;;;2.60;1.80;;;;;;;17.32;53.27;97565.94;4824051;29;20049;-71
2020/12/28 00:28:22;;;;;;;1.92;1.40;;;;;;;17.32;53.36;97564.19;4826078;29;20037;-71
2020/12/28 00:30:47;;;;;;;2.10;1.50;;;;;;;17.31;53.39;97557.25;4809009;29;20035;-71
2020/12/28 00:33:12;;;;;;;1.60;1.27;;;;;;;17.28;53.64;97557.41;4809786;29;20058;-71
2020/12/28 00:35:38;;;;;;;2.03;1.30;;;;;;;17.27;53.37;97553.13;4824440;29;20040;-71
2020/12/28 00:38:03;;;;;;;2.38;1.70;;;;;;;17.27;53.29;97557.50;4824799;29;20478;-71
2020/12/28 00:40:28;;;;;;;2.03;1.50;;;;;;;17.25;52.99;97552.38;4808984;29;20389;-71
2020/12/28 00:42:54;;;;;;;1.63;1.17;;;;;;;17.29;52.98;97558.25;4809507;29;20039;-71
2020/12/28 00:45:19;;;;;;;2.33;1.80;;;;;;;17.24;53.19;97550.69;4807585;29;20034;-71
2020/12/28 00:47:44;;;;;;;2.28;1.40;;;;;;;17.27;53.20;97557.50;4821281;29;20038;-71
2020/12/28 00:50:10;;;;;;;2.05;1.45;;;;;;;17.24;53.35;97548.06;4794631;29;20079;-71
2020/12/28 00:52:35;;;;;;;1.77;1.30;;;;;;;17.26;53.29;97553.22;4807757;29;20102;-71
2020/12/28 00:55:00;;;;;;;2.53;1.58;;;;;;;17.27;53.11;97555.72;4809460;29;20133;-71
2020/12/28 00:57:26;;;;;;;1.90;1.63;;;;;;;17.24;53.06;97555.91;4808765;29;20038;-71
2020/12/28 00:59:51;;;;;;;2.15;1.60;;;;;;;17.25;53.35;97555.00;4824113;29;20125;-71
2020/12/28 01:02:16;;;;;;;2.22;1.25;;;;;;;17.26;53.35;97567.13;4807028;29;20081;-71
2020/12/28 01:04:42;;;;;;;2.15;1.40;;;;;;;17.25;53.03;97560.22;4806684;29;20046;-71
2020/12/28 01:07:07;;;;;;;2.45;1.40;;;;;;;17.22;52.96;97557.75;4808788;29;20047;-71
2020/12/28 01:09:32;;;;;;;2.00;1.65;;;;;;;17.24;53.17;97555.06;4805109;29;20047;-71
2020/12/28 01:11:58;;;;;;;1.83;1.42;;;;;;;17.22;53.32;97552.53;4819575;29;20046;-71
2020/12/28 01:14:23;;;;;;;2.17;1.67;;;;;;;17.22;52.87;97557.75;4779002;29;20130;-71
2020/12/28 01:16:48;;;;;;;3.70;1.83;;;;;;;17.21;53.20;97556.06;4823566;29;20122;-71
2020/12/28 01:19:14;;;;;;;1.90;1.55;;;;;;;17.22;52.83;97559.50;4808429;29;20038;-71
2020/12/28 01:21:39;;;;;;;2.15;1.58;;;;;;;17.19;53.19;97550.06;4808742;29;20116;-71
2020/12/28 01:24:04;;;;;;;2.47;1.95;;;;;;;17.22;53.17;97562.97;4808712;29;20038;-71
2020/12/28 01:26:30;;;;;;;2.47;1.73;;;;;;;17.22;52.83;97557.75;4808669;29;20113;-71
2020/12/28 01:28:56;;;;;;;2.95;1.80;;;;;;;17.20;52.88;97559.59;4805447;29;20031;-71
2020/12/28 01:31:21;;;;;;;4.00;2.03;;;;;;;17.19;53.01;97563.13;4822731;29;20090;-71
2020/12/28 01:33:54;;;;;;;2.03;1.60;;;;;;;17.22;53.12;97570.81;5173893;27;20118;-71
2020/12/28 01:36:20;;;;;;;2.10;1.60;;;;;;;17.18;53.06;97561.44;5121128;28;20032;-72
2020/12/28 01:38:45;;;;;;;2.42;2.00;;;;;;;17.19;53.19;97564.88;5086290;27;20026;-72
2020/12/28 01:41:10;;;;;;;2.55;1.70;;;;;;;17.15;52.94;97564.19;5128223;27;20515;-72
2020/12/28 01:43:36;;;;;;;2.08;1.77;;;;;;;17.23;53.19;97576.88;5131622;27;20099;-71
2020/12/28 01:46:03;;;;;;;3.22;1.98;;;;;;;17.20;53.06;97583.09;5122999;27;20031;-71
2020/12/28 01:48:30;;;;;;;2.17;1.65;;;;;;;17.19;52.96;97573.56;5113622;28;20385;-71
2020/12/28 01:50:56;;;;;;;3.53;2.55;;;;;;;17.20;52.97;97575.25;5131748;27;20102;-71
2020/12/28 01:53:25;;;;;;;2.70;1.83;;;;;;;17.19;52.86;97585.78;5136347;27;20031;-71
2020/12/28 01:56:11;;;;;;;2.55;2.00;;;;;;;17.20;53.00;97588.31;5116108;27;20023;-71
2020/12/28 01:58:36;;;;;;;2.83;2.03;;;;;;;17.14;53.05;97571.19;5132319;28;20046;-72
2020/12/28 02:01:02;;;;;;;3.05;2.08;;;;;;;17.17;52.71;97582.41;5107649;27;20027;-71
2020/12/28 02:03:28;;;;;;;1.90;1.60;;;;;;;17.18;52.55;97584.94;5095763;28;20076;-78
2020/12/28 02:05:54;;;;;;;3.40;2.22;;;;;;;17.19;52.80;97583.16;5112706;28;20055;-78
2020/12/28 02:08:19;;;;;;;2.67;1.80;;;;;;;17.17;52.77;97578.00;5131191;28;20027;-79
2020/12/28 02:10:45;;;;;;;2.25;1.63;;;;;;;17.17;52.70;97579.78;5129370;27;20059;-78
2020/12/28 02:13:10;;;;;;;2.50;2.00;;;;;;;17.17;53.04;97577.19;5112826;27;20115;-78
2020/12/28 02:15:36;;;;;;;2.28;1.70;;;;;;;17.17;52.60;97580.63;5099731;28;20114;-78
2020/12/28 02:18:02;;;;;;;2.60;1.90;;;;;;;17.16;53.10;97584.16;5118153;28;20076;-78
2020/12/28 02:20:27;;;;;;;2.30;1.90;;;;;;;17.17;52.90;97585.00;5133782;27;20212;-78
2020/12/28 02:22:52;;;;;;;2.28;1.73;;;;;;;17.14;52.96;97581.63;5133266;27;20118;-78
2020/12/28 02:25:18;;;;;;;2.28;1.80;;;;;;;17.14;52.64;97579.00;5135818;27;20443;-78
2020/12/28 02:27:43;;;;;;;2.13;1.77;;;;;;;17.11;52.65;97581.81;5114263;28;20483;-78
2020/12/28 02:30:09;;;;;;;3.03;2.17;;;;;;;17.15;52.96;97598.13;5110744;28;20050;-78
2020/12/28 02:32:34;;;;;;;2.58;1.77;;;;;;;17.13;52.67;97593.03;5128904;28;20035;-78
2020/12/28 02:34:59;;;;;;;2.67;2.05;;;;;;;17.13;52.65;97590.41;5106251;28;20031;-78
2020/12/28 02:37:25;;;;;;;2.58;2.15;;;;;;;17.10;52.58;97593.16;5094721;28;20035;-79
2020/12/28 02:39:50;;;;;;;2.90;1.95;;;;;;;17.10;52.91;97595.78;5107101;28;20028;-78
2020/12/28 02:42:16;;;;;;;1.90;1.70;;;;;;;17.10;52.49;97590.56;5111651;28;20027;-78
2020/12/28 02:44:41;;;;;;;3.58;2.47;;;;;;;17.09;52.39;97593.25;5083973;28;20035;-78
2020/12/28 02:47:07;;;;;;;3.10;2.00;;;;;;;17.09;52.69;97593.25;5115940;28;20031;-77
2020/12/28 02:49:32;;;;;;;2.45;1.80;;;;;;;17.11;52.61;97596.63;5077871;28;20109;-79
2020/12/28 02:51:57;;;;;;;2.88;2.10;;;;;;;17.09;52.59;97588.03;5062931;28;20067;-78
2020/12/28 02:54:22;;;;;;;2.15;1.77;;;;;;;17.08;52.49;97581.94;5091150;28;20056;-78
2020/12/28 02:56:48;;;;;;;2.78;2.28;;;;;;;17.10;52.49;97590.56;5069329;28;20035;-78
2020/12/28 02:59:13;;;;;;;2.45;1.92;;;;;;;17.03;52.62;97580.47;5081388;28;20176;-79
2020/12/28 03:01:38;;;;;;;2.42;1.98;;;;;;;17.08;52.75;97591.56;5097946;28;20584;-78
2020/12/28 03:04:04;;;;;;;2.50;1.88;;;;;;;17.06;52.69;97591.63;5111934;28;20116;-78
2020/12/28 03:06:30;;;;;;;2.65;1.90;;;;;;;17.07;52.48;97592.47;5096304;28;20528;-78
2020/12/28 03:08:55;;;;;;;2.70;1.92;;;;;;;17.06;52.49;97590.78;5079651;28;20043;-78
2020/12/28 03:11:21;;;;;;;2.53;2.25;;;;;;;17.04;52.65;97588.25;5061099;28;20402;-78
2020/12/28 03:13:46;;;;;;;3.25;2.17;;;;;;;17.04;52.54;97585.63;5062273;28;20055;-78
2020/12/28 03:16:12;;;;;;;2.33;1.90;;;;;;;17.06;52.67;97598.59;5086359;28;20138;-78
2020/12/28 03:18:38;;;;;;;2.58;2.08;;;;;;;17.04;52.68;97603.91;5107776;28;20039;-78
2020/12/28 03:21:03;;;;;;;3.05;2.22;;;;;;;17.03;52.44;97599.59;5066440;28;20363;-78
2020/12/28 03:23:29;;;;;;;2.92;2.10;;;;;;;17.06;52.46;97603.84;5097489;28;20103;-79
2020/12/28 03:25:54;;;;;;;3.17;2.05;;;;;;;17.02;52.26;97597.06;5072333;28;20061;-77
2020/12/28 03:28:22;;;;;;;2.60;2.40;;;;;;;17.03;52.45;97597.00;5062388;28;20035;-77
2020/12/28 03:30:48;;;;;;;2.40;1.90;;;;;;;17.00;52.36;97599.78;5093975;28;20073;-76
2020/12/28 03:33:14;;;;;;;2.25;1.90;;;;;;;17.04;52.65;97605.66;5077515;28;20044;-77
2020/12/28 03:35:40;;;;;;;2.28;2.00;;;;;;;17.04;52.58;97605.66;5089453;28;20036;-77
2020/12/28 03:38:06;;;;;;;2.05;1.65;;;;;;;17.03;52.11;97615.25;5094685;28;20031;-69
2020/12/28 03:40:32;;;;;;;2.88;2.08;;;;;;;17.02;52.12;97612.72;5093700;28;20358;-69
2020/12/28 03:42:57;;;;;;;2.78;2.20;;;;;;;17.04;52.21;97618.72;5096311;28;20038;-69
2020/12/28 03:45:23;;;;;;;1.92;1.70;;;;;;;17.04;52.30;97616.09;5094858;28;20032;-69
2020/12/28 03:47:48;;;;;;;2.30;2.10;;;;;;;17.04;52.22;97621.34;5083838;28;20028;-69
2020/12/28 03:50:13;;;;;;;2.75;2.17;;;;;;;17.01;52.26;97617.09;5109681;28;20043;-70
2020/12/28 03:52:39;;;;;;;3.08;2.55;;;;;;;17.04;51.95;97629.16;5076875;28;20040;-70
2020/12/28 03:55:08;;;;;;;2.83;2.22;;;;;;;17.04;52.38;97626.56;5088827;28;20031;-69
2020/12/28 03:57:34;;;;;;;2.35;2.05;;;;;;;16.97;52.09;97614.75;5095268;28;20023;-69
2020/12/28 03:59:59;;;;;;;3.00;2.13;;;;;;;17.03;52.30;97627.47;5090514;28;20562;-69
2020/12/28 04:02:25;;;;;;;2.83;2.20;;;;;;;17.01;52.25;97637.13;5113102;28;20031;-70
2020/12/28 04:04:50;;;;;;;2.63;2.05;;;;;;;16.99;52.03;97639.00;5105656;28;20818;-76
2020/12/28 04:07:16;;;;;;;3.78;2.58;;;;;;;16.99;51.98;97639.00;5097177;28;20041;-76
2020/12/28 04:09:41;;;;;;;2.65;2.15;;;;;;;16.98;52.24;97638.16;5096855;28;20042;-77
2020/12/28 04:12:06;;;;;;;3.88;2.80;;;;;;;16.98;52.34;97640.78;5079824;28;20056;-76
2020/12/28 04:14:32;;;;;;;3.03;2.53;;;;;;;16.98;51.71;97647.75;5114851;28;20072;-77
2020/12/28 04:16:57;;;;;;;3.17;2.20;;;;;;;16.99;52.25;97644.22;5079781;28;20034;-77
2020/12/28 04:19:22;;;;;;;2.95;2.03;;;;;;;17.00;52.57;97640.69;5096531;28;20053;-77
2020/12/28 04:21:48;;;;;;;2.92;2.47;;;;;;;16.97;52.05;97633.00;5114414;28;20108;-78
2020/12/28 04:24:15;;;;;;;2.92;2.63;;;;;;;16.95;52.15;97635.69;5096790;28;20036;-77
2020/12/28 04:26:42;;;;;;;2.60;2.33;;;;;;;16.97;51.93;97631.25;5096004;28;20023;-78
2020/12/28 04:29:07;;;;;;;3.20;2.47;;;;;;;16.94;51.95;97627.94;5096650;28;20110;-76
2020/12/28 04:31:32;;;;;;;3.15;2.65;;;;;;;16.98;51.97;97639.94;5114398;28;20145;-77
2020/12/28 04:33:58;;;;;;;2.65;2.22;;;;;;;16.96;51.92;97637.38;5095576;28;20104;-76
2020/12/28 04:36:23;;;;;;;2.60;2.33;;;;;;;16.97;51.94;97638.22;5114333;28;20106;-77
2020/12/28 04:38:48;;;;;;;3.42;2.50;;;;;;;16.95;51.87;97633.09;5096386;28;20477;-69
2020/12/28 04:41:13;;;;;;;3.58;2.80;;;;;;;16.89;52.15;97627.31;5078752;28;20039;-69
2020/12/28 04:43:39;;;;;;;4.30;2.72;;;;;;;16.93;51.88;97631.47;5077644;28;20032;-69
2020/12/28 04:46:06;;;;;;;3.20;2.55;;;;;;;16.96;51.94;97633.94;5078509;28;20358;-70
2020/12/28 04:48:32;;;;;;;3.25;2.35;;;;;;;16.97;51.87;97633.00;5112762;28;20027;-69
2020/12/28 04:51:00;;;;;;;3.47;2.58;;;;;;;17.12;51.55;97640.94;5094060;28;20040;-69
2020/12/28 04:53:27;;;;;;;3.05;2.35;;;;;;;17.30;51.30;97652.19;5111116;28;20055;-69
2020/12/28 04:55:52;;;;;;;3.85;2.60;;;;;;;17.32;51.27;97647.75;5084142;28;20048;-69
2020/12/28 04:58:18;;;;;;;3.28;2.70;;;;;;;17.31;51.48;97651.28;5093199;28;20566;-69
2020/12/28 05:00:44;;;;;;;3.05;2.65;;;;;;;17.34;50.79;97638.06;5095613;28;20039;-69
2020/12/28 05:03:10;;;;;;;2.85;2.10;;;;;;;17.47;51.25;97639.13;5090822;28;20034;-69
2020/12/28 05:05:45;;;;;;;2.20;1.77;;;;;;;17.48;51.13;97630.38;5113077;28;20114;-69
2020/12/28 05:08:11;;;;;;;3.08;2.38;;;;;;;17.43;51.29;97626.31;5090603;28;20386;-69
2020/12/28 05:10:37;;;;;;;3.65;2.92;;;;;;;17.45;50.99;97634.91;5100059;28;20081;-69
2020/12/28 05:13:10;;;;;;;3.03;2.38;;;;;;;17.58;50.95;97627.28;5075617;28;20024;-69
2020/12/28 05:15:50;;;;;;;3.50;2.85;;;;;;;17.55;50.94;97638.72;5112045;28;20032;-69
2020/12/28 05:18:19;;;;;;;3.05;2.13;;;;;;;17.51;50.96;97647.66;5084146;28;20035;-69
2020/12/28 05:20:46;;;;;;;3.60;2.60;;;;;;;17.58;50.89;97642.97;5111064;28;20027;-69
2020/12/28 05:23:13;;;;;;;3.20;2.65;;;;;;;17.65;51.02;97650.44;5101370;28;20023;-69
2020/12/28 05:25:44;;;;;;;2.90;2.45;;;;;;;17.61;50.94;97641.03;5109914;28;20397;-69
2020/12/28 05:28:14;;;;;;;2.55;2.10;;;;;;;17.54;50.91;97634.41;5090745;28;20035;-69
2020/12/28 05:30:43;;;;;;;3.25;2.65;;;;;;;17.66;51.08;97643.41;5089701;28;20074;-69
2020/12/28 05:33:09;;;;;;;2.97;2.67;;;;;;;17.66;50.91;97632.97;5108188;28;20557;-69
2020/12/28 05:35:35;;;;;;;4.13;2.95;;;;;;;17.63;50.96;97627.91;5095196;28;20031;-70
2020/12/28 05:38:01;;;;;;;2.33;1.85;;;;;;;17.64;50.73;97650.53;5076823;28;20088;-70
2020/12/28 05:40:26;;;;;;;2.97;2.38;;;;;;;17.71;50.60;97642.28;5110167;28;20047;-69
2020/12/28 05:42:54;;;;;;;3.55;2.90;;;;;;;17.74;50.87;97644.72;5078977;28;20034;-69
2020/12/28 05:45:19;;;;;;;2.95;2.65;;;;;;;17.68;50.97;97638.97;5109964;28;20072;-70
2020/12/28 05:47:54;;;;;;;2.60;2.28;;;;;;;17.61;51.10;97642.81;5093732;28;20027;-69
2020/12/28 05:50:22;;;;;;;3.88;2.88;;;;;;;17.53;51.26;97634.53;5093454;28;20027;-69
2020/12/28 05:53:07;;;;;;;3.30;2.70;;;;;;;17.49;51.60;97639.91;5094785;28;20489;-69
2020/12/28 05:55:33;;;;;;;3.10;2.78;;;;;;;17.45;51.38;97637.53;5083057;28;20047;-70
2020/12/28 05:57:59;;;;;;;3.10;2.63;;;;;;;17.41;51.42;97630.75;5083079;28;20019;-69
2020/12/28 06:00:25;;;;;;;3.17;2.40;;;;;;;17.39;51.61;97638.69;5078033;28;20035;-69
2020/12/28 06:02:51;;;;;;;4.38;3.13;;;;;;;17.39;51.70;97643.06;5093273;28;20060;-69
2020/12/28 06:05:19;;;;;;;3.72;3.05;;;;;;;17.36;51.47;97638.84;5094101;28;20059;-69
2020/12/28 06:07:45;;;;;;;3.60;3.15;;;;;;;17.36;51.45;97638.84;5106791;28;20028;-69
2020/12/28 06:10:12;;;;;;;4.40;3.72;;;;;;;17.34;51.52;97638.06;5109910;28;20542;-69
2020/12/28 06:12:39;;;;;;;4.43;2.92;;;;;;;17.34;51.49;97635.47;5088360;28;20028;-69
2020/12/28 06:15:20;;;;;;;3.05;2.60;;;;;;;17.30;51.64;97630.47;5088112;28;20038;-69
2020/12/28 06:17:47;;;;;;;3.05;2.75;;;;;;;17.31;51.51;97634.75;5073082;28;20080;-69
2020/12/28 06:20:13;;;;;;;3.20;2.83;;;;;;;17.28;51.54;97637.53;5094989;28;20416;-69
2020/12/28 06:22:41;;;;;;;3.67;3.38;;;;;;;17.28;51.67;97640.13;5093199;28;20060;-69
2020/12/28 06:25:26;;;;;;;3.13;2.55;;;;;;;17.26;51.55;97636.78;5095694;28;20030;-69
2020/12/28 06:27:52;;;;;;;3.45;2.83;;;;;;;17.25;51.99;97641.16;5110241;28;20040;-69
2020/12/28 06:30:22;;;;;;;3.80;2.92;;;;;;;17.23;51.46;97639.53;5069982;28;20034;-69
2020/12/28 06:32:49;;;;;;;4.22;3.20;;;;;;;17.19;51.73;97633.63;5078625;28;20047;-70
2020/12/28 06:35:16;;;;;;;3.88;2.90;;;;;;;17.23;51.50;97644.75;5077322;28;20032;-69
2020/12/28 06:37:42;;;;;;;4.13;3.47;;;;;;;17.22;51.42;97643.91;5103882;28;20028;-69
2020/12/28 06:40:09;;;;;;;3.58;3.15;;;;;;;17.20;51.57;97645.75;5088699;28;20046;-69
2020/12/28 06:42:35;;;;;;;4.00;3.17;;;;;;;17.16;51.59;97633.78;5078822;28;20474;-69
2020/12/28 06:45:14;;;;;;;3.92;3.20;;;;;;;17.16;51.44;97641.59;5087186;28;20031;-69
2020/12/28 06:47:40;;;;;;;3.95;3.50;;;;;;;17.17;51.63;97645.06;5096803;28;20015;-69
2020/12/28 06:50:05;;;;;;;4.43;3.28;;;;;;;17.18;51.66;97649.34;5082533;28;20057;-69
2020/12/28 06:52:30;;;;;;;4.10;2.92;;;;;;;17.13;51.70;97645.22;5113149;28;20035;-69
2020/12/28 06:55:11;;;;;;;4.45;3.63;;;;;;;17.17;51.67;97651.13;5113505;28;20046;-69
2020/12/28 06:57:38;;;;;;;3.63;3.00;;;;;;;17.15;51.45;97652.97;5087511;28;20015;-69
2020/12/28 07:00:05;;;;;;;3.70;2.92;;;;;;;17.14;51.53;97649.50;5078826;28;20106;-69
2020/12/28 07:02:31;;;;;;;3.92;3.20;;;;;;;17.16;51.48;97662.50;5086294;28;20016;-69
2020/12/28 07:05:00;;;;;;;3.97;3.30;;;;;;;17.16;51.59;97667.72;5091369;28;20038;-69
2020/12/28 07:07:26;;;;;;;3.78;3.38;;;;;;;17.14;51.43;97670.41;5108862;28;20502;-69
2020/12/28 07:09:51;;;;;;;4.05;3.20;;;;;;;17.14;51.26;97674.78;5088086;28;20063;-69
2020/12/28 07:12:16;;;;;;;4.20;3.75;;;;;;;17.12;51.61;97672.25;5091543;28;20054;-69
2020/12/28 07:14:42;;;;;;;3.50;3.05;;;;;;;17.10;51.71;97674.09;5083988;28;20075;-69
2020/12/28 07:17:07;;;;;;;4.10;3.50;;;;;;;17.12;51.40;97666.19;5085551;28;20115;-71
2020/12/28 07:19:33;;;;;;;3.83;3.13;;;;;;;17.09;51.35;97668.94;5083293;28;20130;-77
2020/12/28 07:21:59;;;;;;;4.70;3.88;;;;;;;17.12;51.64;97674.03;5086143;28;20036;-69
2020/12/28 07:24:24;;;;;;;4.00;3.60;;;;;;;17.11;51.22;97675.78;5090432;28;20083;-69
2020/12/28 07:26:50;;;;;;;4.30;3.28;;;;;;;17.09;51.38;97682.00;5092008;28;20036;-69
2020/12/28 07:29:18;;;;;;;4.00;3.13;;;;;;;17.08;51.38;97691.59;5084426;28;20024;-77
2020/12/28 07:31:45;;;;;;;3.47;3.17;;;;;;;17.10;51.75;97691.53;5082759;28;20385;-76
2020/12/28 07:34:15;;;;;;;3.85;3.33;;;;;;;17.09;51.62;97700.28;5097283;28;20089;-77
2020/12/28 07:36:43;;;;;;;3.47;3.17;;;;;;;17.09;51.38;97708.13;5109395;28;20497;-76
2020/12/28 07:39:11;;;;;;;3.65;3.30;;;;;;;17.09;51.28;97708.13;5099213;28;20054;-77
2020/12/28 07:41:36;;;;;;;5.28;4.07;;;;;;;17.07;51.39;97704.72;5096900;28;20110;-77
2020/12/28 07:44:02;;;;;;;4.53;2.92;;;;;;;17.06;51.46;97713.47;5097366;28;20161;-76
2020/12/28 07:46:30;;;;;;;4.13;3.63;;;;;;;17.07;51.57;97713.41;5115516;28;20149;-77
2020/12/28 07:48:57;;;;;;;4.00;3.40;;;;;;;17.04;51.58;97713.53;5097443;28;20032;-76
2020/12/28 07:51:25;;;;;;;3.92;3.50;;;;;;;17.03;51.83;97713.63;5114972;28;20381;-77
2020/12/28 07:53:57;;;;;;;3.63;3.13;;;;;;;17.01;51.45;97711.06;5077470;28;20386;-77
2020/12/28 07:56:28;;;;;;;4.00;3.42;;;;;;;17.03;51.51;97711.84;5112887;28;20032;-77
2020/12/28 07:59:08;;;;;;;4.18;3.78;;;;;;;17.03;51.47;97706.63;5102878;28;20077;-77
2020/12/28 08:01:51;;;;;;;5.00;3.72;;;;;;;17.02;51.26;97706.69;5094328;28;20050;-77
2020/12/28 08:04:23;;;;;;;5.05;3.00;;;;;;;17.05;51.38;97714.38;5108570;28;20062;-77
2020/12/28 08:06:49;;;;;;;4.47;3.78;;;;;;;17.02;51.24;97709.31;5093310;28;20042;-77
2020/12/28 08:09:21;;;;;;;3.50;2.85;;;;;;;17.02;51.60;97714.53;5112821;28;20047;-76
2020/12/28 08:11:56;;;;;;;4.22;3.10;;;;;;;17.00;51.43;97703.34;5087695;28;20046;-77
2020/12/28 08:14:22;;;;;;;3.90;3.08;;;;;;;17.02;51.21;97711.91;5106638;28;20028;-76
2020/12/28 08:16:47;;;;;;;3.85;3.30;;;;;;;16.98;51.56;97703.41;5097061;28;20106;-77
2020/12/28 08:19:26;;;;;;;3.47;3.17;;;;;;;16.97;51.40;97704.34;5089650;28;20023;-77
2020/12/28 08:21:51;;;;;;;3.30;3.00;;;;;;;16.96;51.44;97702.63;5092648;28;20077;-76
2020/12/28 08:24:18;;;;;;;3.78;3.38;;;;;;;17.01;51.00;97715.44;5105128;28;20028;-77
2020/12/28 08:26:44;;;;;;;4.13;3.30;;;;;;;17.09;51.09;97710.72;5110674;28;20035;-76
2020/12/28 08:29:09;;;;;;;4.28;3.42;;;;;;;17.25;50.95;97710.81;5068877;28;20081;-77
2020/12/28 08:31:35;;;;;;;3.65;2.97;;;;;;;17.31;50.73;97715.72;5101296;28;20028;-69
2020/12/28 08:34:12;;;;;;;5.50;3.75;;;;;;;17.30;50.61;97717.50;5109793;28;20038;-69
2020/12/28 08:36:41;;;;;;;4.55;3.65;;;;;;;17.32;50.48;97714.81;5086176;28;20026;-69
2020/12/28 08:39:12;;;;;;;3.30;2.97;;;;;;;17.46;50.51;97717.56;5104965;28;20055;-69
2020/12/28 08:41:37;;;;;;;3.88;3.35;;;;;;;17.43;50.58;97712.50;5091786;28;20034;-69
2020/12/28 08:44:03;;;;;;;3.35;2.97;;;;;;;17.39;50.67;97714.44;5093300;28;20027;-77
2020/12/28 08:46:28;;;;;;;3.17;2.75;;;;;;;17.44;50.28;97728.09;5086946;28;20032;-77
2020/12/28 08:48:54;;;;;;;3.25;2.90;;;;;;;17.57;50.52;97722.25;5113321;28;20101;-77
2020/12/28 08:51:20;;;;;;;4.03;3.03;;;;;;;17.58;50.28;97726.56;5095299;28;20039;-76
2020/12/28 08:53:50;;;;;;;3.38;2.92;;;;;;;17.53;50.27;97725.97;5070730;28;20059;-76
2020/12/28 08:56:17;;;;;;;3.85;3.08;;;;;;;17.54;50.21;97715.41;5093257;28;20066;-77
2020/12/28 08:58:43;;;;;;;3.22;2.60;;;;;;;17.63;49.93;97708.91;5091402;28;20034;-69
2020/12/28 09:01:08;;;;;;;2.65;2.45;;;;;;;17.62;50.12;97720.28;5085366;28;20118;-69
2020/12/28 09:03:37;;;;;;;3.50;2.78;;;;;;;17.60;50.41;97722.97;5077613;28;20088;-69
2020/12/28 09:06:03;;;;;;;3.03;2.58;;;;;;;17.62;50.20;97720.28;5087131;28;20028;-70
2020/12/28 09:08:29;;;;;;;3.00;2.70;;;;;;;17.72;50.04;97724.13;5065998;28;20071;-69
2020/12/28 09:10:54;;;;;;;3.70;3.03;;;;;;;17.69;50.12;97719.91;5112421;28;20032;-77
2020/12/28 09:13:20;;;;;;;2.63;2.40;;;;;;;17.66;50.20;97720.06;5114035;28;20031;-77
2020/12/28 09:15:45;;;;;;;4.18;2.65;;;;;;;17.73;50.53;97728.44;5112178;28;20447;-77
2020/12/28 09:18:11;;;;;;;4.00;2.90;;;;;;;17.75;50.18;97730.06;5094259;28;20038;-77
2020/12/28 09:20:36;;;;;;;4.15;2.72;;;;;;;17.68;50.25;97722.59;5087859;28;20038;-77
2020/12/28 09:23:01;;;;;;;4.90;2.50;;;;;;;17.69;50.36;97726.91;5074264;28;20390;-77
2020/12/28 09:25:27;;;;;;;2.92;2.63;;;;;;;17.76;50.21;97728.28;5110232;28;20081;-76
2020/12/28 09:27:52;;;;;;;2.95;2.00;;;;;;;17.77;50.23;97729.97;5091991;28;20031;-77
2020/12/28 09:30:18;;;;;;;2.28;1.90;;;;;;;17.72;50.36;97730.22;5109012;28;20035;-77
2020/12/28 09:32:43;;;;;;;3.55;2.83;;;;;;;17.65;50.46;97736.69;5093484;28;20048;-78
2020/12/28 09:35:08;;;;;;;2.88;2.58;;;;;;;17.58;50.65;97723.94;5093409;28;20036;-78
2020/12/28 09:37:34;;;;;;;2.60;2.10;;;;;;;17.53;50.65;97729.41;5095458;28;20027;-78
2020/12/28 09:39:59;;;;;;;2.85;2.35;;;;;;;17.54;50.85;97730.25;5077039;28;20024;-77
2020/12/28 09:42:25;;;;;;;3.00;2.20;;;;;;;17.49;50.78;97733.97;5108408;28;20032;-70
2020/12/28 09:44:50;;;;;;;2.97;2.38;;;;;;;17.47;50.93;97733.19;5095150;28;20465;-70
2020/12/28 09:47:16;;;;;;;2.50;2.30;;;;;;;17.49;50.97;97744.41;5068894;28;20383;-70
2020/12/28 09:49:41;;;;;;;3.53;2.50;;;;;;;17.45;50.87;97742.84;5095795;28;20024;-70
2020/12/28 09:52:06;;;;;;;2.85;2.22;;;;;;;17.44;51.25;97735.94;5054956;28;20028;-70
2020/12/28 09:54:34;;;;;;;2.65;1.88;;;;;;;17.39;51.11;97737.94;5084101;28;20047;-70
2020/12/28 09:57:04;;;;;;;3.05;2.28;;;;;;;17.40;51.01;97742.22;5091565;28;20433;-70
2020/12/28 09:59:30;;;;;;;2.90;2.25;;;;;;;17.40;51.14;97742.22;5082772;28;20035;-70
2020/12/28 10:01:56;;;;;;;3.05;2.42;;;;;;;17.37;51.00;97736.34;5116840;28;20039;-70
2020/12/28 10:04:21;;;;;;;3.70;2.45;;;;;;;17.37;50.76;97738.94;5075929;28;20027;-70
2020/12/28 10:06:46;;;;;;;2.20;1.85;;;;;;;17.39;50.90;97744.94;5064961;28;20035;-70
2020/12/28 10:09:12;;;;;;;2.35;2.03;;;;;;;17.38;50.88;97745.88;5098779;28;20103;-78
2020/12/28 10:11:38;;;;;;;2.70;2.20;;;;;;;17.34;51.14;97741.69;5097783;28;20157;-77
2020/12/28 10:14:03;;;;;;;2.50;2.22;;;;;;;17.34;50.80;97739.94;5089182;28;20901;-78
2020/12/28 10:16:30;;;;;;;3.45;2.70;;;;;;;17.33;51.03;97743.47;5084421;28;20035;-77
2020/12/28 10:18:56;;;;;;;2.65;2.17;;;;;;;17.35;50.93;97748.63;5113015;28;20029;-77
2020/12/28 10:21:23;;;;;;;2.95;2.28;;;;;;;17.28;50.89;97742.84;5111770;28;20126;-78
2020/12/28 10:23:49;;;;;;;3.25;2.30;;;;;;;17.33;50.76;97753.91;5092882;28;20026;-77
2020/12/28 10:26:20;;;;;;;3.00;2.38;;;;;;;17.31;50.83;97755.75;5099035;28;20466;-77
2020/12/28 10:28:46;;;;;;;2.42;1.83;;;;;;;17.25;50.80;97747.38;5098493;28;20439;-78
2020/12/28 10:31:12;;;;;;;3.03;2.30;;;;;;;17.23;50.85;97741.38;5096082;28;20089;-77
2020/12/28 10:33:39;;;;;;;2.78;2.50;;;;;;;17.29;51.09;97762.81;5097750;28;20093;-77
2020/12/28 10:36:05;;;;;;;2.42;1.98;;;;;;;17.29;50.82;97761.97;5116715;28;20028;-76
2020/12/28 10:38:30;;;;;;;2.30;2.10;;;;;;;17.25;50.80;97753.44;5088117;28;20558;-78
2020/12/28 10:40:56;;;;;;;2.75;2.00;;;;;;;17.26;50.84;97751.69;5078510;28;20056;-77
2020/12/28 10:43:21;;;;;;;2.70;2.08;;;;;;;17.22;50.38;97747.53;5086566;28;20081;-77
2020/12/28 10:45:46;;;;;;;2.78;2.10;;;;;;;17.26;50.75;97762.97;5107976;28;20497;-77
2020/12/28 10:48:12;;;;;;;2.30;2.10;;;;;;;17.25;50.85;97758.69;5082162;28;20032;-77
2020/12/28 10:50:37;;;;;;;2.60;2.15;;;;;;;17.27;50.85;97766.41;5098146;28;20481;-78
2020/12/28 10:53:02;;;;;;;2.40;1.70;;;;;;;17.26;50.66;97764.75;5097738;28;20497;-78
2020/12/28 10:55:31;;;;;;;2.20;1.88;;;;;;;17.22;50.95;97761.44;5094444;28;20024;-70
2020/12/28 10:57:56;;;;;;;2.33;1.80;;;;;;;17.24;50.58;97764.81;5094477;28;20081;-70
2020/12/28 11:00:21;;;;;;;2.50;1.80;;;;;;;17.20;50.68;97758.03;5077530;28;20020;-70
2020/12/28 11:02:49;;;;;;;2.45;1.92;;;;;;;17.22;50.80;97761.44;5076720;28;20115;-77
2020/12/28 11:05:14;;;;;;;2.30;1.70;;;;;;;17.18;50.87;97759.88;5095021;28;20028;-70
2020/12/28 11:07:39;;;;;;;2.78;2.22;;;;;;;17.22;50.88;97760.59;5065418;28;20035;-76
2020/12/28 11:10:05;;;;;;;2.95;2.08;;;;;;;17.18;50.94;97754.66;5101574;28;20025;-77
2020/12/28 11:12:30;;;;;;;2.45;1.90;;;;;;;17.21;50.90;97759.72;5108183;28;20489;-78
2020/12/28 11:14:55;;;;;;;2.90;2.10;;;;;;;17.21;50.81;97756.28;5097356;28;20045;-77
2020/12/28 11:17:21;;;;;;;2.20;1.60;;;;;;;17.21;50.46;97754.50;5115265;28;20032;-78
2020/12/28 11:19:46;;;;;;;2.78;1.95;;;;;;;17.21;51.13;97740.59;5097851;28;20039;-77
2020/12/28 11:22:11;;;;;;;1.80;1.45;;;;;;;17.21;50.40;97740.59;5078786;28;20085;-77
2020/12/28 11:24:37;;;;;;;2.67;1.52;;;;;;;17.22;50.38;97739.69;5110087;28;20057;-77
2020/12/28 11:27:02;;;;;;;3.95;2.78;;;;;;;17.20;50.48;97742.38;5115589;28;20484;-78
2020/12/28 11:29:27;;;;;;;1.95;1.65;;;;;;;17.21;50.73;97748.44;5115180;28;20393;-78
2020/12/28 11:31:53;;;;;;;2.30;1.67;;;;;;;17.20;51.01;97744.97;5093337;28;20063;-77